Time,TemperatureF,DewpointF,PressureIn,WindDirection,WindDirectionDegrees,WindSpeedMPH,WindSpeedGustMPH,Humidity,HourlyPrecipIn,Conditions,Clouds,dailyrainin,SoftwareType,DateUTC
2013-03-30 00:02:00,42.0,34.0,29.91,NW,319,9.0,-999.0,72,-99.99,,,-99.99,,2013-03-30 04:02:00,
2013-03-30 00:12:00,42.0,34.0,29.91,NW,319,9.0,-999.0,72,-99.99,,,-99.99,,2013-03-30 04:12:00,
2013-03-30 00:23:00,42.0,34.0,29.91,NW,307,10.0,-999.0,73,-99.99,,,-99.99,,2013-03-30 04:23:00,
2013-03-30 00:33:00,42.0,34.0,29.91,NNW,336,11.0,-999.0,73,-99.99,,,-99.99,,2013-03-30 04:33:00,
2013-03-30 00:43:00,42.0,34.0,29.91,NNW,336,11.0,-999.0,73,-99.99,,,-99.99,,2013-03-30 04:43:00,
2013-03-30 00:53:00,42.0,34.0,29.91,NNW,327,11.0,-999.0,73,-99.99,,,-99.99,,2013-03-30 04:53:00,
2013-03-30 01:02:00,41.0,33.0,29.91,NNW,340,10.0,-999.0,74,-99.99,,,-99.99,,2013-03-30 05:02:00,
2013-03-30 01:12:00,41.0,33.0,29.91,NNW,340,10.0,-999.0,74,-99.99,,,-99.99,,2013-03-30 05:12:00,
2013-03-30 01:22:00,40.0,33.0,29.92,NNW,346,8.0,-999.0,76,-99.99,,,-99.99,,2013-03-30 05:22:00,
2013-03-30 01:32:00,40.0,33.0,29.92,NNW,331,9.0,-999.0,76,-99.99,,,-99.99,,2013-03-30 05:32:00,
2013-03-30 01:42:00,40.0,33.0,29.92,NNW,331,9.0,-999.0,76,-99.99,,,-99.99,,2013-03-30 05:42:00,
2013-03-30 01:52:00,40.0,33.0,29.92,North,349,8.0,-999.0,77,-99.99,,,-99.99,,2013-03-30 05:52:00,
2013-03-30 02:02:00,39.0,32.0,29.92,NNW,336,8.0,-999.0,77,-99.99,,,-99.99,,2013-03-30 06:02:00,
2013-03-30 02:12:00,39.0,32.0,29.92,NNW,336,8.0,-999.0,77,-99.99,,,-99.99,,2013-03-30 06:12:00,
2013-03-30 02:23:00,40.0,33.0,29.92,NNW,331,7.0,-999.0,77,-99.99,,,-99.99,,2013-03-30 06:23:00,
2013-03-30 02:32:00,39.0,32.0,29.92,NNW,334,7.0,-999.0,77,-99.99,,,-99.99,,2013-03-30 06:32:00,
2013-03-30 02:42:00,39.0,32.0,29.92,NNW,334,7.0,-999.0,77,-99.99,,,-99.99,,2013-03-30 06:42:00,
2013-03-30 02:52:00,39.0,33.0,29.92,NW,325,7.0,-999.0,78,-99.99,,,-99.99,,2013-03-30 06:52:00,
2013-03-30 03:02:00,39.0,33.0,29.92,NNW,335,8.0,-999.0,79,-99.99,,,-99.99,,2013-03-30 07:02:00,
2013-03-30 03:12:00,39.0,33.0,29.92,NNW,335,8.0,-999.0,79,-99.99,,,-99.99,,2013-03-30 07:12:00,
2013-03-30 03:22:00,38.0,32.0,29.92,NNW,340,7.0,-999.0,79,-99.99,,,-99.99,,2013-03-30 07:22:00,
2013-03-30 03:32:00,38.0,33.0,29.92,NNW,332,7.0,-999.0,81,-99.99,,,-99.99,,2013-03-30 07:32:00,
2013-03-30 03:42:00,38.0,33.0,29.92,NNW,332,7.0,-999.0,81,-99.99,,,-99.99,,2013-03-30 07:42:00,
2013-03-30 03:52:00,38.0,33.0,29.92,NNW,336,7.0,-999.0,82,-99.99,,,-99.99,,2013-03-30 07:52:00,
2013-03-30 04:02:00,37.0,32.0,29.92,NNW,327,8.0,-999.0,83,-99.99,,,-99.99,,2013-03-30 08:02:00,
2013-03-30 04:12:00,37.0,32.0,29.92,NNW,327,8.0,-999.0,83,-99.99,,,-99.99,,2013-03-30 08:12:00,
2013-03-30 04:22:00,37.0,32.0,29.93,NNW,344,7.0,-999.0,83,-99.99,,,-99.99,,2013-03-30 08:22:00,
2013-03-30 04:32:00,36.0,31.0,29.93,NNW,344,7.0,-999.0,83,-99.99,,,-99.99,,2013-03-30 08:32:00,
2013-03-30 04:42:00,36.0,31.0,29.93,NNW,344,7.0,-999.0,83,-99.99,,,-99.99,,2013-03-30 08:42:00,
2013-03-30 04:53:00,36.0,32.0,29.93,NNW,345,7.0,-999.0,84,-99.99,,,-99.99,,2013-03-30 08:53:00,
2013-03-30 05:02:00,36.0,32.0,29.93,North,355,7.0,-999.0,84,-99.99,,,-99.99,,2013-03-30 09:02:00,
2013-03-30 05:12:00,36.0,32.0,29.93,North,360,8.0,-999.0,85,-99.99,,,-99.99,,2013-03-30 09:12:00,
2013-03-30 05:22:00,36.0,32.0,29.93,North,360,8.0,-999.0,85,-99.99,,,-99.99,,2013-03-30 09:22:00,
2013-03-30 05:43:00,36.0,32.0,29.93,North,349,7.0,-999.0,84,-99.99,,,-99.99,,2013-03-30 09:43:00,
2013-03-30 05:54:00,36.0,32.0,29.93,NNW,342,6.0,-999.0,84,-99.99,,,-99.99,,2013-03-30 09:54:00,
2013-03-30 06:03:00,36.0,32.0,29.93,NNW,346,5.0,-999.0,84,-99.99,,,-99.99,,2013-03-30 10:03:00,
2013-03-30 06:13:00,36.0,32.0,29.93,NNW,346,5.0,-999.0,84,-99.99,,,-99.99,,2013-03-30 10:13:00,
2013-03-30 06:23:00,35.0,31.0,29.94,NNW,337,6.0,-999.0,84,-99.99,,,-99.99,,2013-03-30 10:23:00,
2013-03-30 06:33:00,35.0,31.0,29.94,NNW,342,7.0,-999.0,84,-99.99,,,-99.99,,2013-03-30 10:33:00,
2013-03-30 06:42:00,35.0,31.0,29.94,NNW,342,7.0,-999.0,84,-99.99,,,-99.99,,2013-03-30 10:42:00,
2013-03-30 06:53:00,36.0,32.0,29.94,NNW,344,7.0,-999.0,84,-99.99,,,-99.99,,2013-03-30 10:53:00,
2013-03-30 07:03:00,35.0,31.0,29.95,NNW,342,7.0,-999.0,84,-99.99,,,-99.99,,2013-03-30 11:03:00,
2013-03-30 07:12:00,35.0,31.0,29.95,NNW,342,7.0,-999.0,84,-99.99,,,-99.99,,2013-03-30 11:12:00,
2013-03-30 07:23:00,36.0,32.0,29.95,NNW,338,7.0,-999.0,85,-99.99,,,-99.99,,2013-03-30 11:23:00,
2013-03-30 07:33:00,36.0,32.0,29.96,NNW,333,7.0,-999.0,85,-99.99,,,-99.99,,2013-03-30 11:33:00,
2013-03-30 07:42:00,36.0,32.0,29.96,NNW,333,7.0,-999.0,85,-99.99,,,-99.99,,2013-03-30 11:42:00,
2013-03-30 07:53:00,37.0,33.0,29.96,NNW,337,7.0,-999.0,84,-99.99,,,-99.99,,2013-03-30 11:53:00,
2013-03-30 08:02:00,37.0,33.0,29.96,NNW,329,6.0,-999.0,84,-99.99,,,-99.99,,2013-03-30 12:02:00,
2013-03-30 08:13:00,37.0,33.0,29.96,NNW,329,6.0,-999.0,84,-99.99,,,-99.99,,2013-03-30 12:13:00,
2013-03-30 08:22:00,38.0,33.0,29.97,NNW,333,6.0,-999.0,83,-99.99,,,-99.99,,2013-03-30 12:22:00,
2013-03-30 08:32:00,38.0,33.0,29.97,NNW,347,9.0,-999.0,81,-99.99,,,-99.99,,2013-03-30 12:32:00,
2013-03-30 08:42:00,38.0,33.0,29.97,NNW,347,9.0,-999.0,81,-99.99,,,-99.99,,2013-03-30 12:42:00,
2013-03-30 08:53:00,39.0,33.0,29.97,NNW,334,8.0,-999.0,80,-99.99,,,-99.99,,2013-03-30 12:53:00,
2013-03-30 09:02:00,39.0,33.0,29.97,NW,318,8.0,-999.0,79,-99.99,,,-99.99,,2013-03-30 13:02:00,
2013-03-30 09:12:00,39.0,33.0,29.97,NW,318,8.0,-999.0,79,-99.99,,,-99.99,,2013-03-30 13:12:00,
2013-03-30 09:22:00,40.0,34.0,29.97,NNW,334,8.0,-999.0,78,-99.99,,,-99.99,,2013-03-30 13:22:00,
2013-03-30 09:32:00,40.0,34.0,29.97,NNW,329,8.0,-999.0,78,-99.99,,,-99.99,,2013-03-30 13:32:00,
2013-03-30 09:43:00,40.0,34.0,29.97,NNW,329,8.0,-999.0,78,-99.99,,,-99.99,,2013-03-30 13:43:00,
2013-03-30 09:53:00,41.0,34.0,29.97,NW,315,8.0,-999.0,77,-99.99,,,-99.99,,2013-03-30 13:53:00,
2013-03-30 10:03:00,42.0,35.0,29.97,NW,317,8.0,-999.0,76,-99.99,,,-99.99,,2013-03-30 14:03:00,
2013-03-30 10:12:00,42.0,35.0,29.97,NW,317,8.0,-999.0,76,-99.99,,,-99.99,,2013-03-30 14:12:00,
2013-03-30 10:23:00,42.0,34.0,29.97,NW,310,7.0,-999.0,73,-99.99,,,-99.99,,2013-03-30 14:23:00,
2013-03-30 10:32:00,42.0,35.0,29.97,NW,317,6.0,-999.0,76,-99.99,,,-99.99,,2013-03-30 14:32:00,
2013-03-30 10:42:00,42.0,35.0,29.97,NW,317,6.0,-999.0,76,-99.99,,,-99.99,,2013-03-30 14:42:00,
2013-03-30 10:53:00,41.0,35.0,29.96,WNW,301,5.0,-999.0,79,-99.99,,,-99.99,,2013-03-30 14:53:00,
2013-03-30 11:03:00,43.0,35.0,29.96,NW,310,3.0,-999.0,74,-99.99,,,-99.99,,2013-03-30 15:03:00,
2013-03-30 11:12:00,43.0,35.0,29.96,NW,310,3.0,-999.0,74,-99.99,,,-99.99,,2013-03-30 15:12:00,
2013-03-30 11:22:00,44.0,34.0,29.96,NW,311,8.0,-999.0,67,-99.99,,,-99.99,,2013-03-30 15:22:00,
2013-03-30 11:34:00,45.0,32.0,29.96,NW,311,5.0,-999.0,59,-99.99,,,-99.99,,2013-03-30 15:34:00,
2013-03-30 11:43:00,45.0,32.0,29.96,NW,311,5.0,-999.0,59,-99.99,,,-99.99,,2013-03-30 15:43:00,
2013-03-30 11:53:00,45.0,32.0,29.96,West,277,5.0,-999.0,60,-99.99,,,-99.99,,2013-03-30 15:53:00,
2013-03-30 12:03:00,46.0,35.0,29.95,WSW,253,6.0,-999.0,65,-99.99,,,-99.99,,2013-03-30 16:03:00,
2013-03-30 12:13:00,47.0,34.0,29.94,WSW,238,5.0,-999.0,61,-99.99,,,-99.99,,2013-03-30 16:13:00,
2013-03-30 12:23:00,47.0,34.0,29.94,WSW,238,5.0,-999.0,61,-99.99,,,-99.99,,2013-03-30 16:23:00,
2013-03-30 12:33:00,45.0,35.0,29.94,SW,229,7.0,-999.0,68,-99.99,,,-99.99,,2013-03-30 16:33:00,
2013-03-30 12:43:00,45.0,35.0,29.94,SW,229,7.0,-999.0,68,-99.99,,,-99.99,,2013-03-30 16:43:00,
2013-03-30 12:53:00,44.0,37.0,29.94,SW,222,7.0,-999.0,75,-99.99,,,-99.99,,2013-03-30 16:53:00,
2013-03-30 13:02:00,44.0,37.0,29.94,SSW,211,7.0,-999.0,75,-99.99,,,-99.99,,2013-03-30 17:02:00,
2013-03-30 13:13:00,44.0,37.0,29.94,SSW,211,7.0,-999.0,75,-99.99,,,-99.99,,2013-03-30 17:13:00,
2013-03-30 13:23:00,43.0,37.0,29.93,SW,217,9.0,-999.0,80,-99.99,,,-99.99,,2013-03-30 17:23:00,
2013-03-30 13:32:00,44.0,38.0,29.93,SSW,200,8.0,-999.0,78,-99.99,,,-99.99,,2013-03-30 17:32:00,
2013-03-30 13:42:00,44.0,38.0,29.93,SSW,200,8.0,-999.0,78,-99.99,,,-99.99,,2013-03-30 17:42:00,
2013-03-30 13:53:00,44.0,37.0,29.93,SSW,213,9.0,-999.0,77,-99.99,,,-99.99,,2013-03-30 17:53:00,
2013-03-30 14:03:00,44.0,38.0,29.93,SW,223,8.0,-999.0,78,-99.99,,,-99.99,,2013-03-30 18:03:00,
2013-03-30 14:12:00,44.0,38.0,29.92,SSW,210,9.0,-999.0,78,-99.99,,,-99.99,,2013-03-30 18:12:00,
2013-03-30 14:22:00,44.0,38.0,29.92,SSW,210,9.0,-999.0,78,-99.99,,,-99.99,,2013-03-30 18:22:00,
2013-03-30 14:32:00,44.0,38.0,29.92,SSW,211,9.0,-999.0,78,-99.99,,,-99.99,,2013-03-30 18:32:00,
2013-03-30 14:42:00,44.0,38.0,29.92,SSW,211,9.0,-999.0,78,-99.99,,,-99.99,,2013-03-30 18:42:00,
2013-03-30 14:53:00,45.0,38.0,29.92,SW,234,7.0,-999.0,77,-99.99,,,-99.99,,2013-03-30 18:53:00,
2013-03-30 15:03:00,44.0,38.0,29.92,South,190,8.0,-999.0,80,-99.99,,,-99.99,,2013-03-30 19:03:00,
2013-03-30 15:13:00,44.0,38.0,29.92,South,190,8.0,-999.0,80,-99.99,,,-99.99,,2013-03-30 19:13:00,
2013-03-30 15:22:00,45.0,39.0,29.92,SW,215,7.0,-999.0,80,-99.99,,,-99.99,,2013-03-30 19:22:00,
2013-03-30 15:32:00,45.0,39.0,29.92,South,183,6.0,-999.0,79,-99.99,,,-99.99,,2013-03-30 19:32:00,
2013-03-30 15:42:00,45.0,39.0,29.92,South,183,6.0,-999.0,79,-99.99,,,-99.99,,2013-03-30 19:42:00,
2013-03-30 15:53:00,44.0,38.0,29.92,South,190,9.0,-999.0,79,-99.99,,,-99.99,,2013-03-30 19:53:00,
2013-03-30 16:02:00,44.0,38.0,29.91,SSW,202,8.0,-999.0,79,-99.99,,,-99.99,,2013-03-30 20:02:00,
2013-03-30 16:12:00,44.0,38.0,29.91,SSW,202,8.0,-999.0,79,-99.99,,,-99.99,,2013-03-30 20:12:00,
2013-03-30 16:22:00,44.0,39.0,29.92,SW,220,8.0,-999.0,81,-99.99,,,-99.99,,2013-03-30 20:22:00,
2013-03-30 16:33:00,43.0,38.0,29.92,SSW,196,9.0,-999.0,82,-99.99,,,-99.99,,2013-03-30 20:33:00,
2013-03-30 16:42:00,43.0,38.0,29.92,SSW,196,9.0,-999.0,82,-99.99,,,-99.99,,2013-03-30 20:42:00,
2013-03-30 16:53:00,43.0,38.0,29.92,SW,232,9.0,-999.0,83,-99.99,,,-99.99,,2013-03-30 20:53:00,
2013-03-30 17:02:00,43.0,38.0,29.92,SSW,208,8.0,-999.0,83,-99.99,,,-99.99,,2013-03-30 21:02:00,
2013-03-30 17:12:00,43.0,38.0,29.92,SSW,208,8.0,-999.0,83,-99.99,,,-99.99,,2013-03-30 21:12:00,
2013-03-30 17:22:00,43.0,38.0,29.92,South,189,8.0,-999.0,83,-99.99,,,-99.99,,2013-03-30 21:22:00,
2013-03-30 17:34:00,43.0,38.0,29.92,SW,227,8.0,-999.0,81,-99.99,,,-99.99,,2013-03-30 21:34:00,
2013-03-30 17:43:00,43.0,38.0,29.92,SW,227,8.0,-999.0,81,-99.99,,,-99.99,,2013-03-30 21:43:00,
2013-03-30 17:53:00,43.0,37.0,29.92,SSW,207,7.0,-999.0,80,-99.99,,,-99.99,,2013-03-30 21:53:00,
2013-03-30 18:03:00,43.0,38.0,29.93,SW,221,7.0,-999.0,81,-99.99,,,-99.99,,2013-03-30 22:03:00,
2013-03-30 18:13:00,43.0,38.0,29.93,SW,221,7.0,-999.0,81,-99.99,,,-99.99,,2013-03-30 22:13:00,
2013-03-30 18:23:00,43.0,38.0,29.93,SW,236,9.0,-999.0,81,-99.99,,,-99.99,,2013-03-30 22:23:00,
2013-03-30 18:33:00,43.0,37.0,29.94,SW,235,7.0,-999.0,78,-99.99,,,-99.99,,2013-03-30 22:33:00,
2013-03-30 18:43:00,43.0,37.0,29.94,SW,235,7.0,-999.0,78,-99.99,,,-99.99,,2013-03-30 22:43:00,
2013-03-30 18:54:00,43.0,35.0,29.94,WSW,250,9.0,-999.0,74,-99.99,,,-99.99,,2013-03-30 22:54:00,
2013-03-30 19:02:00,43.0,35.0,29.94,WSW,250,10.0,-999.0,73,-99.99,,,-99.99,,2013-03-30 23:02:00,
2013-03-30 19:12:00,43.0,35.0,29.94,WSW,250,10.0,-999.0,73,-99.99,,,-99.99,,2013-03-30 23:12:00,
2013-03-30 19:22:00,43.0,35.0,29.94,WSW,245,10.0,-999.0,74,-99.99,,,-99.99,,2013-03-30 23:22:00,
2013-03-30 19:33:00,42.0,35.0,29.95,WSW,241,8.0,-999.0,76,-99.99,,,-99.99,,2013-03-30 23:33:00,
2013-03-30 19:42:00,42.0,35.0,29.95,WSW,241,8.0,-999.0,76,-99.99,,,-99.99,,2013-03-30 23:42:00,
2013-03-30 19:53:00,42.0,35.0,29.95,WSW,237,9.0,-999.0,77,-99.99,,,-99.99,,2013-03-30 23:53:00,
2013-03-30 20:02:00,42.0,35.0,29.96,WSW,244,8.0,-999.0,76,-99.99,,,-99.99,,2013-03-31 00:02:00,
2013-03-30 20:12:00,42.0,35.0,29.96,WSW,244,8.0,-999.0,76,-99.99,,,-99.99,,2013-03-31 00:12:00,
2013-03-30 20:22:00,42.0,35.0,29.97,WSW,249,8.0,-999.0,75,-99.99,,,-99.99,,2013-03-31 00:22:00,
2013-03-30 20:32:00,42.0,35.0,29.97,WSW,254,8.0,-999.0,75,-99.99,,,-99.99,,2013-03-31 00:32:00,
2013-03-30 20:42:00,42.0,35.0,29.97,WSW,254,8.0,-999.0,75,-99.99,,,-99.99,,2013-03-31 00:42:00,
2013-03-30 20:53:00,41.0,34.0,29.97,West,265,5.0,-999.0,75,-99.99,,,-99.99,,2013-03-31 00:53:00,
2013-03-30 21:02:00,41.0,34.0,29.98,West,276,3.0,-999.0,77,-99.99,,,-99.99,,2013-03-31 01:02:00,
2013-03-30 21:12:00,41.0,34.0,29.98,West,276,3.0,-999.0,77,-99.99,,,-99.99,,2013-03-31 01:12:00,
2013-03-30 21:22:00,41.0,35.0,29.98,NW,308,1.0,-999.0,78,-99.99,,,-99.99,,2013-03-31 01:22:00,
2013-03-30 21:32:00,41.0,35.0,29.98,West,261,6.0,-999.0,78,-99.99,,,-99.99,,2013-03-31 01:32:00,
2013-03-30 21:42:00,41.0,35.0,29.98,West,261,6.0,-999.0,78,-99.99,,,-99.99,,2013-03-31 01:42:00,
2013-03-30 21:53:00,41.0,35.0,29.99,West,269,6.0,-999.0,78,-99.99,,,-99.99,,2013-03-31 01:53:00,
2013-03-30 22:02:00,41.0,35.0,29.99,West,269,4.0,-999.0,78,-99.99,,,-99.99,,2013-03-31 02:02:00,
2013-03-30 22:13:00,41.0,35.0,29.99,West,269,4.0,-999.0,78,-99.99,,,-99.99,,2013-03-31 02:13:00,
2013-03-30 22:22:00,40.0,34.0,29.99,West,269,3.0,-999.0,79,-99.99,,,-99.99,,2013-03-31 02:22:00,
2013-03-30 22:32:00,40.0,34.0,29.99,West,270,4.0,-999.0,78,-99.99,,,-99.99,,2013-03-31 02:32:00,
2013-03-30 22:43:00,40.0,34.0,29.99,West,270,4.0,-999.0,78,-99.99,,,-99.99,,2013-03-31 02:43:00,
2013-03-30 22:52:00,41.0,33.0,29.99,West,270,4.0,-999.0,72,-99.99,,,-99.99,,2013-03-31 02:52:00,
2013-03-30 23:02:00,41.0,31.0,30.00,NW,325,5.0,-999.0,68,-99.99,,,-99.99,,2013-03-31 03:02:00,
2013-03-30 23:13:00,41.0,31.0,30.00,NW,325,5.0,-999.0,68,-99.99,,,-99.99,,2013-03-31 03:13:00,
2013-03-30 23:22:00,40.0,30.0,30.00,NNW,339,6.0,-999.0,68,-99.99,,,-99.99,,2013-03-31 03:22:00,
2013-03-30 23:33:00,40.0,30.0,30.00,NNW,330,6.0,-999.0,67,-99.99,,,-99.99,,2013-03-31 03:33:00,
2013-03-30 23:43:00,40.0,30.0,30.00,NNW,330,6.0,-999.0,67,-99.99,,,-99.99,,2013-03-31 03:43:00,
2013-03-30 23:54:00,39.0,30.0,30.00,NNW,336,7.0,-999.0,69,-99.99,,,-99.99,,2013-03-31 03:54:00,